Time;durP1;ratioP1;P1;durP2;ratioP2;P2;SDS_P1;SDS_P2;PMS_P1;PMS_P2;Temp;Humidity;BMP_temperature;BMP_pressure;BME280_temperature;BME280_humidity;BME280_pressure;Samples;Min_cycle;Max_cycle;Signal;HPM_P1;HPM_P2
2023/02/27 00:00:16;;;;;;;6.20;4.53;;;;;;;-2.01;72.17;98896.22;5085152;28;20062;-74
2023/02/27 00:02:43;;;;;;;6.85;4.65;;;;;;;-2.08;72.46;98897.78;5073171;28;20403;-74
2023/02/27 00:05:09;;;;;;;4.78;4.25;;;;;;;-2.21;72.77;98899.94;5083507;28;20033;-75
2023/02/27 00:07:34;;;;;;;5.13;4.13;;;;;;;-2.13;71.73;98897.41;5085107;28;20024;-75
2023/02/27 00:10:00;;;;;;;5.63;4.13;;;;;;;-2.24;72.15;98889.69;5063180;28;20032;-75
2023/02/27 00:12:25;;;;;;;5.18;4.22;;;;;;;-2.22;72.21;98890.38;5043195;28;20055;-75
2023/02/27 00:14:50;;;;;;;6.03;4.70;;;;;;;-2.30;72.30;98896.38;5084090;28;20051;-75
2023/02/27 00:17:16;;;;;;;7.88;3.90;;;;;;;-2.24;72.15;98901.06;5084921;28;20825;-73
2023/02/27 00:19:41;;;;;;;5.10;4.40;;;;;;;-2.22;71.87;98900.94;5059695;28;20028;-73
2023/02/27 00:22:07;;;;;;;4.30;3.83;;;;;;;-2.27;71.97;98895.25;5063573;28;20439;-74
2023/02/27 00:24:32;;;;;;;5.18;3.67;;;;;;;-2.21;72.21;98907.84;5059781;28;20033;-73
2023/02/27 00:26:58;;;;;;;3.97;3.58;;;;;;;-2.21;71.59;98906.03;5074621;28;20093;-74
2023/02/27 00:29:23;;;;;;;4.38;3.80;;;;;;;-2.26;71.85;98907.44;5074701;28;20117;-74
2023/02/27 00:31:50;;;;;;;4.13;3.75;;;;;;;-2.29;71.85;98903.28;5074532;28;20782;-74
2023/02/27 00:34:15;;;;;;;4.63;4.15;;;;;;;-2.27;71.67;98906.66;5088797;28;20039;-74
2023/02/27 00:36:41;;;;;;;4.50;4.05;;;;;;;-2.31;72.00;98899.97;5079565;28;20111;-73
2023/02/27 00:39:06;;;;;;;4.55;3.90;;;;;;;-2.32;72.72;98908.03;5059921;28;20040;-73
2023/02/27 00:41:32;;;;;;;5.68;4.65;;;;;;;-2.32;71.87;98908.03;5082136;28;20020;-73
2023/02/27 00:43:57;;;;;;;4.70;3.67;;;;;;;-2.36;72.01;98906.69;5086363;28;20056;-74
2023/02/27 00:46:22;;;;;;;5.43;4.20;;;;;;;-2.33;72.25;98906.38;5062267;28;20021;-75
2023/02/27 00:48:49;;;;;;;4.05;3.75;;;;;;;-2.41;72.33;98909.75;5063212;28;20425;-75
2023/02/27 00:51:15;;;;;;;4.68;3.72;;;;;;;-2.44;72.13;98909.22;5054093;28;20027;-75
2023/02/27 00:53:40;;;;;;;4.57;4.18;;;;;;;-2.38;72.77;98911.28;5055899;28;20115;-75
2023/02/27 00:56:07;;;;;;;5.88;4.35;;;;;;;-2.39;72.68;98917.50;5062648;28;20032;-75
2023/02/27 00:58:32;;;;;;;4.03;3.70;;;;;;;-2.41;72.18;98922.09;5053376;28;20039;-75
2023/02/27 01:00:59;;;;;;;4.68;4.05;;;;;;;-2.34;71.60;98925.81;5065026;28;20016;-75
2023/02/27 01:03:26;;;;;;;4.82;4.40;;;;;;;-2.44;72.47;98922.38;5062386;28;20068;-76
2023/02/27 01:05:52;;;;;;;5.60;4.93;;;;;;;-2.39;71.79;98922.78;5060552;28;20107;-75
2023/02/27 01:08:19;;;;;;;5.80;5.13;;;;;;;-2.47;72.32;98920.03;5061175;28;20064;-75
2023/02/27 01:10:45;;;;;;;4.47;4.07;;;;;;;-2.42;72.64;98928.34;5049526;28;20073;-75
2023/02/27 01:13:10;;;;;;;5.43;4.57;;;;;;;-2.39;72.66;98922.78;5042672;28;20048;-74
2023/02/27 01:15:35;;;;;;;4.60;4.20;;;;;;;-2.48;71.53;98918.38;5081202;28;20044;-75
2023/02/27 01:18:01;;;;;;;5.32;4.82;;;;;;;-2.55;71.77;98925.22;5064377;28;20093;-75
2023/02/27 01:20:27;;;;;;;4.43;3.67;;;;;;;-2.49;71.67;98927.25;5081292;28;20024;-74
2023/02/27 01:22:52;;;;;;;4.45;3.92;;;;;;;-2.58;72.02;98930.75;5066385;28;20028;-74
2023/02/27 01:25:18;;;;;;;4.07;3.55;;;;;;;-2.54;71.94;98924.22;5053244;28;20024;-75
2023/02/27 01:27:43;;;;;;;4.03;3.67;;;;;;;-2.53;71.85;98925.91;5071772;28;20031;-75
2023/02/27 01:30:10;;;;;;;4.57;4.10;;;;;;;-2.53;72.21;98932.00;5061133;28;20391;-75
2023/02/27 01:32:36;;;;;;;4.65;3.67;;;;;;;-2.60;71.63;98928.28;5064613;28;20031;-75
2023/02/27 01:35:03;;;;;;;4.45;3.30;;;;;;;-2.53;71.55;98936.44;5061054;28;20028;-75
2023/02/27 01:37:28;;;;;;;3.97;3.20;;;;;;;-2.48;71.47;98936.84;5047367;28;20032;-75
2023/02/27 01:39:53;;;;;;;4.47;4.07;;;;;;;-2.52;71.98;98940.75;5073149;28;20024;-76
2023/02/27 01:42:24;;;;;;;4.53;4.18;;;;;;;-2.70;72.44;98938.00;5070759;28;20039;-75
2023/02/27 01:45:11;;;;;;;4.65;4.32;;;;;;;-2.78;73.08;98939.72;5063317;28;20036;-75
2023/02/27 01:47:39;;;;;;;5.85;5.00;;;;;;;-2.66;72.08;98946.47;5077363;28;20055;-74
2023/02/27 01:50:05;;;;;;;6.55;5.05;;;;;;;-2.87;73.32;98939.56;5041356;28;20021;-75
2023/02/27 01:52:31;;;;;;;5.55;4.57;;;;;;;-2.88;72.86;98937.94;5063271;28;20033;-74
2023/02/27 01:54:56;;;;;;;5.15;4.57;;;;;;;-2.84;72.31;98939.31;5034219;28;20095;-74
2023/02/27 01:57:22;;;;;;;3.55;3.30;;;;;;;-2.84;72.21;98943.72;5072034;28;20028;-74
2023/02/27 01:59:47;;;;;;;4.00;3.70;;;;;;;-2.74;71.66;98938.44;5057875;28;20016;-74
2023/02/27 02:02:20;;;;;;;3.50;3.20;;;;;;;-2.69;71.54;98946.75;5062982;28;20025;-74
2023/02/27 02:04:46;;;;;;;4.22;3.47;;;;;;;-2.74;71.09;98956.88;5073290;28;20043;-75
2023/02/27 02:07:14;;;;;;;4.55;3.90;;;;;;;-2.71;71.25;98941.63;5073544;28;20051;-75
2023/02/27 02:09:44;;;;;;;4.25;3.85;;;;;;;-2.70;71.47;98945.09;5073166;28;20024;-75
2023/02/27 02:12:13;;;;;;;6.50;3.83;;;;;;;-2.68;70.92;98948.44;5056063;28;20024;-75
2023/02/27 02:14:41;;;;;;;3.80;3.10;;;;;;;-2.67;70.89;98950.06;5056724;28;20398;-75
2023/02/27 02:17:12;;;;;;;3.60;3.30;;;;;;;-2.85;71.46;98950.00;5061276;28;20108;-75
2023/02/27 02:20:09;;;;;;;5.53;2.97;;;;;;;-2.94;71.58;98949.00;5065950;28;20032;-73
2023/02/27 02:22:55;;;;;;;4.45;4.05;;;;;;;-2.92;71.84;98952.34;5082185;28;20402;-73
2023/02/27 02:26:08;;;;;;;4.50;3.38;;;;;;;-2.93;71.97;98949.84;5069284;28;20498;-73
2023/02/27 02:28:52;;;;;;;4.60;3.70;;;;;;;-3.03;73.08;98949.03;5029895;28;20144;-75
2023/02/27 02:31:29;;;;;;;6.07;4.55;;;;;;;-3.11;72.61;98947.13;5084114;28;20044;-75
2023/02/27 02:34:13;;;;;;;4.65;3.78;;;;;;;-3.09;72.53;98939.91;5069011;28;20046;-76
2023/02/27 02:37:10;;;;;;;4.28;3.97;;;;;;;-3.21;73.56;98946.28;5069780;28;20115;-75
2023/02/27 02:39:47;;;;;;;6.45;4.80;;;;;;;-3.35;74.18;98946.69;5087380;28;20033;-75
2023/02/27 02:42:24;;;;;;;5.20;4.80;;;;;;;-3.36;73.67;98939.75;5054086;28;20126;-75
2023/02/27 02:45:22;;;;;;;4.65;4.25;;;;;;;-3.28;74.03;98954.88;5066124;28;20024;-75
2023/02/27 02:48:16;;;;;;;5.22;4.82;;;;;;;-3.38;74.01;98949.59;5049925;28;20043;-74
2023/02/27 02:51:13;;;;;;;5.10;4.70;;;;;;;-3.46;73.89;98952.09;5055925;28;20139;-75
2023/02/27 02:53:46;;;;;;;5.70;5.10;;;;;;;-3.32;73.20;98949.06;5055213;28;20094;-75
2023/02/27 02:56:19;;;;;;;5.38;4.88;;;;;;;-3.30;73.72;98949.75;5075943;28;20483;-75
2023/02/27 02:58:52;;;;;;;5.72;5.15;;;;;;;-3.32;73.89;98949.06;5079297;28;20110;-76
2023/02/27 03:01:23;;;;;;;5.32;4.28;;;;;;;-3.28;73.75;98949.59;5061528;28;20120;-76
2023/02/27 03:04:03;;;;;;;6.18;5.68;;;;;;;-3.28;73.12;98952.25;5072650;28;20491;-76
2023/02/27 03:06:32;;;;;;;7.97;4.60;;;;;;;-3.26;72.49;98953.75;5058679;28;20038;-77
2023/02/27 03:09:04;;;;;;;5.70;5.20;;;;;;;-3.29;72.76;98953.22;5063054;28;20026;-75
2023/02/27 03:11:32;;;;;;;4.95;4.38;;;;;;;-3.30;72.54;98952.38;5061149;28;20032;-74
2023/02/27 03:14:20;;;;;;;4.47;4.07;;;;;;;-3.33;72.93;98946.56;5058591;28;20428;-74
2023/02/27 03:16:49;;;;;;;4.88;4.47;;;;;;;-3.34;72.91;98951.00;5078192;28;20044;-74
2023/02/27 03:19:22;;;;;;;6.28;5.78;;;;;;;-3.56;74.35;98957.38;5042999;28;20476;-75
2023/02/27 03:22:01;;;;;;;5.45;4.72;;;;;;;-3.61;74.24;98964.00;5064958;28;20536;-76
2023/02/27 03:24:40;;;;;;;4.43;4.13;;;;;;;-3.41;72.84;98960.44;5074119;28;20081;-76
2023/02/27 03:27:07;;;;;;;6.28;5.65;;;;;;;-3.52;73.28;98960.53;5065158;28;20521;-76
2023/02/27 03:29:49;;;;;;;5.70;5.18;;;;;;;-3.54;74.28;98959.84;5061679;28;20452;-76
2023/02/27 03:32:38;;;;;;;5.97;5.15;;;;;;;-3.77;74.77;98974.22;5059662;28;20079;-76
2023/02/27 03:35:05;;;;;;;5.30;4.85;;;;;;;-3.72;74.40;98958.88;5034726;28;20032;-76
2023/02/27 03:37:41;;;;;;;5.18;4.72;;;;;;;-3.66;73.41;98956.50;5047426;28;20441;-75
2023/02/27 03:40:26;;;;;;;5.68;4.95;;;;;;;-3.67;73.32;98956.66;5065311;28;20111;-75
2023/02/27 03:43:10;;;;;;;5.15;4.75;;;;;;;-3.67;74.15;98960.13;5061800;28;20047;-76
2023/02/27 03:45:59;;;;;;;5.47;4.97;;;;;;;-3.64;73.29;98965.09;5078055;28;20032;-75
2023/02/27 03:48:24;;;;;;;4.68;4.28;;;;;;;-3.60;73.32;98961.25;5060214;28;20044;-75
2023/02/27 03:50:50;;;;;;;5.18;4.47;;;;;;;-3.56;73.08;98961.78;5062921;28;20029;-75
2023/02/27 03:53:22;;;;;;;5.40;4.90;;;;;;;-3.44;72.61;98960.69;5073512;28;20055;-75
2023/02/27 03:55:48;;;;;;;5.15;4.75;;;;;;;-3.55;72.77;98964.28;5066148;28;20616;-76
2023/02/27 03:58:14;;;;;;;9.20;4.63;;;;;;;-3.62;73.48;98972.88;5042016;28;20391;-75
2023/02/27 04:00:39;;;;;;;7.65;5.88;;;;;;;-3.53;73.15;98969.41;5061035;28;20028;-76
2023/02/27 04:03:05;;;;;;;5.80;4.68;;;;;;;-3.49;72.52;98976.06;5059274;28;20032;-75
2023/02/27 04:05:31;;;;;;;5.93;3.72;;;;;;;-3.46;72.40;98973.16;5063011;28;20028;-74
2023/02/27 04:08:11;;;;;;;3.53;3.22;;;;;;;-3.39;71.62;98976.91;5060115;28;20471;-75
2023/02/27 04:10:45;;;;;;;3.30;2.97;;;;;;;-3.39;71.52;98978.72;5065174;28;20047;-74
2023/02/27 04:13:26;;;;;;;3.97;3.25;;;;;;;-3.36;71.44;98987.16;5077432;28;20043;-74
2023/02/27 04:16:05;;;;;;;3.80;3.50;;;;;;;-3.42;72.65;98984.25;5081142;28;20040;-74
2023/02/27 04:18:52;;;;;;;4.13;3.72;;;;;;;-3.51;72.24;98991.16;5075903;28;20123;-75
2023/02/27 04:21:33;;;;;;;4.22;3.83;;;;;;;-3.58;72.13;98987.41;5078803;28;20068;-74
2023/02/27 04:24:33;;;;;;;4.70;3.53;;;;;;;-3.60;72.05;98986.72;5059805;28;20067;-75
2023/02/27 04:27:07;;;;;;;5.68;4.43;;;;;;;-3.60;73.07;98994.63;5051728;28;20038;-75
2023/02/27 04:29:57;;;;;;;4.90;4.50;;;;;;;-3.47;72.67;99008.34;5060887;28;20035;-75
2023/02/27 04:32:44;;;;;;;4.93;3.80;;;;;;;-3.56;72.49;99009.16;5074235;28;20506;-75
2023/02/27 04:35:15;;;;;;;4.75;4.32;;;;;;;-3.63;72.84;99002.78;5067098;28;20044;-74
2023/02/27 04:38:08;;;;;;;4.82;4.43;;;;;;;-3.60;72.87;99007.78;5080783;28;20044;-75
2023/02/27 04:40:43;;;;;;;4.85;3.67;;;;;;;-3.70;73.07;99009.56;5067387;28;20036;-74
2023/02/27 04:43:10;;;;;;;5.18;4.03;;;;;;;-3.50;72.47;99008.59;5078511;28;20376;-74
2023/02/27 04:45:37;;;;;;;3.70;3.45;;;;;;;-3.62;72.70;99009.72;5073796;28;20028;-75
2023/02/27 04:48:12;;;;;;;5.43;4.90;;;;;;;-3.68;72.58;99005.81;5064975;28;20059;-75
2023/02/27 04:50:43;;;;;;;;;;;;;;;-3.64;72.93;99014.28;5084329;28;20074;-75
2023/02/27 04:53:14;;;;;;;3.42;3.13;;;;;;;-3.60;72.22;99002.53;5063549;28;19912;-75
2023/02/27 04:55:50;;;;;;;4.82;3.88;;;;;;;-3.60;72.23;99013.03;5076847;28;20040;-76
2023/02/27 04:58:29;;;;;;;5.68;3.72;;;;;;;-3.56;71.92;99017.91;5078087;28;20131;-74
2023/02/27 05:01:06;;;;;;;3.67;3.45;;;;;;;-3.55;71.67;99018.75;5065747;28;20024;-75
2023/02/27 05:03:34;;;;;;;4.70;3.70;;;;;;;-3.57;71.88;99016.22;5091445;28;20036;-75
2023/02/27 05:06:01;;;;;;;4.13;3.22;;;;;;;-3.57;71.42;99018.06;5073576;28;20028;-75
2023/02/27 05:08:42;;;;;;;4.07;3.67;;;;;;;-3.56;72.20;99025.81;5059543;28;20047;-75
2023/02/27 05:11:38;;;;;;;5.60;3.25;;;;;;;-3.54;71.77;99023.84;5074334;28;20028;-74
2023/02/27 05:14:07;;;;;;;;;;;;;;;-3.56;71.66;99019.69;5068760;28;20040;-74
2023/02/27 05:16:43;;;;;;;3.80;3.50;;;;;;;-3.67;71.95;99028.56;5059224;28;19927;-74
2023/02/27 05:19:09;;;;;;;7.45;5.38;;;;;;;-3.60;72.59;99028.84;5090287;28;20119;-74
2023/02/27 05:21:44;;;;;;;4.50;3.65;;;;;;;-3.76;73.25;99025.88;5090145;28;20019;-74
2023/02/27 05:24:20;;;;;;;4.20;3.80;;;;;;;-3.71;72.48;99028.97;5090133;28;20028;-74
2023/02/27 05:27:16;;;;;;;5.57;4.82;;;;;;;-3.73;72.56;99030.88;5065482;28;20445;-75
2023/02/27 05:29:49;;;;;;;4.03;3.73;;;;;;;-3.64;71.56;99043.25;5059667;28;20031;-74
2023/02/27 05:32:25;;;;;;;5.72;3.05;;;;;;;-3.71;72.08;99035.03;5073419;28;20300;-75
2023/02/27 05:35:17;;;;;;;3.67;3.38;;;;;;;-3.59;71.26;99048.91;5060163;28;20446;-75
2023/02/27 05:37:50;;;;;;;4.47;2.95;;;;;;;-3.60;72.14;99049.88;5077466;28;20039;-75
2023/02/27 05:40:21;;;;;;;5.80;3.00;;;;;;;-3.73;72.60;99049.28;5041595;28;20488;-75
2023/02/27 05:43:11;;;;;;;3.65;3.33;;;;;;;-3.80;72.00;99053.41;5062088;28;20059;-74
2023/02/27 05:45:38;;;;;;;4.65;4.25;;;;;;;-3.83;72.41;99049.28;5079897;28;20101;-76
2023/02/27 05:48:10;;;;;;;4.18;3.78;;;;;;;-3.90;73.22;99063.09;5053246;28;20483;-75
2023/02/27 05:50:37;;;;;;;6.03;3.60;;;;;;;-3.97;73.48;99067.22;5066520;28;20039;-76
2023/02/27 05:53:07;;;;;;;6.28;3.75;;;;;;;-4.01;74.03;99071.06;5079473;28;20091;-73
2023/02/27 05:55:40;;;;;;;9.48;4.30;;;;;;;-4.04;73.51;99069.53;5059586;28;20028;-75
2023/02/27 05:58:13;;;;;;;6.13;3.50;;;;;;;-4.18;74.23;99063.78;5059454;28;20032;-74
2023/02/27 06:00:38;;;;;;;6.78;4.25;;;;;;;-4.13;74.69;99067.66;5086092;28;20043;-74
2023/02/27 06:03:03;;;;;;;6.20;4.93;;;;;;;-4.07;73.89;99061.06;5086539;28;20100;-74
2023/02/27 06:05:29;;;;;;;18.10;5.18;;;;;;;-4.07;74.37;99061.06;5063567;28;20110;-77
2023/02/27 06:07:55;;;;;;;5.90;4.30;;;;;;;-4.10;74.10;99066.56;5061589;28;20029;-73
2023/02/27 06:10:21;;;;;;;4.82;4.43;;;;;;;-3.97;74.36;99061.94;5073565;28;20036;-74
2023/02/27 06:12:46;;;;;;;5.90;5.00;;;;;;;-4.01;73.83;99071.06;5064852;28;20028;-73
2023/02/27 06:15:12;;;;;;;5.97;5.32;;;;;;;-3.94;74.36;99069.56;5086611;28;20037;-74
2023/02/27 06:17:38;;;;;;;4.53;4.13;;;;;;;-4.03;74.92;99072.97;5068054;28;20031;-75
2023/02/27 06:20:05;;;;;;;6.25;5.85;;;;;;;-4.00;74.61;99077.97;5075256;28;20071;-74
2023/02/27 06:22:31;;;;;;;6.13;5.57;;;;;;;-3.99;74.16;99079.66;5068905;28;20055;-74
2023/02/27 06:24:56;;;;;;;4.95;4.57;;;;;;;-3.97;74.75;99085.63;5093225;28;20450;-74
2023/02/27 06:27:22;;;;;;;5.72;5.22;;;;;;;-3.89;74.02;99081.34;5093276;28;20479;-74
2023/02/27 06:29:47;;;;;;;6.18;5.78;;;;;;;-3.90;73.58;99074.44;5080940;28;20040;-75
2023/02/27 06:32:12;;;;;;;5.50;5.03;;;;;;;-3.70;72.80;99070.91;5061214;28;20116;-74
2023/02/27 06:34:38;;;;;;;5.13;4.70;;;;;;;-3.71;73.31;99074.50;5066330;28;20045;-74
2023/02/27 06:37:03;;;;;;;5.35;4.90;;;;;;;-3.71;73.14;99078.94;5075871;28;20114;-74
2023/02/27 06:39:29;;;;;;;5.35;4.80;;;;;;;-3.61;73.11;99074.53;5068887;28;20036;-73
2023/02/27 06:41:54;;;;;;;4.97;4.53;;;;;;;-3.56;72.57;99072.34;5076886;28;20023;-73
2023/02/27 06:44:19;;;;;;;4.88;4.35;;;;;;;-3.44;72.08;99068.63;5063705;28;20036;-73
2023/02/27 06:46:45;;;;;;;5.07;4.38;;;;;;;-3.38;72.07;99075.16;5065705;28;20083;-74
2023/02/27 06:49:10;;;;;;;4.22;3.92;;;;;;;-3.32;72.03;99079.88;5076972;28;20040;-74
2023/02/27 06:51:36;;;;;;;4.78;4.38;;;;;;;-3.23;71.39;99079.06;5061639;28;20159;-74
2023/02/27 06:54:01;;;;;;;5.15;4.00;;;;;;;-3.23;70.86;99073.78;5027749;28;20032;-74
2023/02/27 06:56:26;;;;;;;5.38;4.35;;;;;;;-3.22;71.95;99086.81;5081876;28;20032;-73
2023/02/27 06:58:52;;;;;;;7.55;3.65;;;;;;;-3.18;70.88;99080.34;5086016;28;20147;-73
2023/02/27 07:01:17;;;;;;;4.30;3.40;;;;;;;-3.08;70.91;99088.25;5066361;28;20020;-71
2023/02/27 07:03:43;;;;;;;4.43;3.40;;;;;;;-3.12;71.32;99082.41;5092462;28;20035;-73
2023/02/27 07:06:09;;;;;;;5.10;3.63;;;;;;;-3.06;71.72;99088.94;5053176;28;20498;-73
2023/02/27 07:08:34;;;;;;;4.80;3.22;;;;;;;-3.00;71.15;99097.13;5087343;28;20036;-73
2023/02/27 07:11:00;;;;;;;6.60;4.00;;;;;;;-2.96;70.81;99101.13;5060708;28;20036;-73
2023/02/27 07:13:25;;;;;;;3.40;3.10;;;;;;;-2.97;69.88;99086.31;5083168;28;20032;-73
2023/02/27 07:15:51;;;;;;;5.10;4.20;;;;;;;-2.82;70.59;99095.47;5083181;28;20498;-73
2023/02/27 07:18:16;;;;;;;4.30;3.65;;;;;;;-2.75;70.06;99097.56;5062076;28;20165;-72
2023/02/27 07:20:42;;;;;;;3.72;3.17;;;;;;;-2.75;69.57;99100.19;5082728;28;20024;-73
2023/02/27 07:23:07;;;;;;;3.20;2.83;;;;;;;-2.72;69.52;99094.63;5085311;28;20059;-73
2023/02/27 07:25:32;;;;;;;4.45;3.40;;;;;;;-2.65;68.33;99095.75;5055271;28;20036;-73
2023/02/27 07:27:58;;;;;;;3.50;3.00;;;;;;;-2.53;68.97;99094.63;5048510;28;20124;-74
2023/02/27 07:30:23;;;;;;;4.85;2.60;;;;;;;-2.44;68.82;99099.06;5055839;28;20492;-74
2023/02/27 07:32:49;;;;;;;3.67;3.38;;;;;;;-2.51;69.21;99092.69;5078383;28;20032;-73
2023/02/27 07:35:15;;;;;;;3.42;3.13;;;;;;;-2.39;69.18;99102.09;5082876;28;20457;-73
2023/02/27 07:37:40;;;;;;;4.43;2.92;;;;;;;-2.41;68.05;99096.16;5085020;28;20044;-73
2023/02/27 07:40:09;;;;;;;4.22;3.33;;;;;;;-2.32;68.44;99097.94;5081995;28;20043;-72
2023/02/27 07:42:34;;;;;;;4.95;2.90;;;;;;;-2.25;68.59;99096.41;5067976;28;20037;-73
2023/02/27 07:45:00;;;;;;;5.53;3.30;;;;;;;-2.24;69.11;99088.34;5052791;28;20040;-74
2023/02/27 07:47:25;;;;;;;3.63;3.15;;;;;;;-2.29;67.75;99100.31;5062819;28;20492;-74
2023/02/27 07:49:51;;;;;;;3.40;3.10;;;;;;;-2.16;68.12;99092.91;5056141;28;20059;-74
2023/02/27 07:52:16;;;;;;;3.60;3.30;;;;;;;-2.15;68.02;99089.31;5078127;28;20067;-74
2023/02/27 07:54:42;;;;;;;3.22;2.95;;;;;;;-1.95;67.76;99090.91;5082088;28;20024;-74
2023/02/27 07:57:07;;;;;;;5.95;3.70;;;;;;;-1.92;67.83;99102.97;5084850;28;20044;-76
2023/02/27 07:59:33;;;;;;;5.13;3.17;;;;;;;-1.86;67.65;99100.59;5082993;28;20023;-74
2023/02/27 08:01:58;;;;;;;10.63;3.85;;;;;;;-1.79;67.15;99106.13;5074526;28;20101;-74
2023/02/27 08:04:23;;;;;;;3.95;2.80;;;;;;;-1.89;66.69;99100.88;5081384;28;20024;-74
2023/02/27 08:06:49;;;;;;;3.90;3.30;;;;;;;-1.91;66.67;99087.00;5060909;28;20941;-74
2023/02/27 08:09:14;;;;;;;5.05;3.15;;;;;;;-1.77;65.65;99102.38;5081452;28;20055;-73
2023/02/27 08:11:40;;;;;;;4.18;3.30;;;;;;;-1.70;66.52;99099.97;5087707;28;20355;-74
2023/02/27 08:14:06;;;;;;;4.65;3.83;;;;;;;-1.62;66.24;99103.56;5081355;28;20032;-74
2023/02/27 08:16:31;;;;;;;4.20;3.35;;;;;;;-1.50;64.79;99102.41;5067699;28;20181;-74
2023/02/27 08:18:56;;;;;;;5.45;3.00;;;;;;;-1.51;65.99;99106.03;5063848;28;20107;-74
2023/02/27 08:21:22;;;;;;;4.85;3.00;;;;;;;-1.50;65.39;99097.13;5089774;28;20037;-74
2023/02/27 08:23:47;;;;;;;3.35;2.90;;;;;;;-1.62;64.63;99108.00;5078816;28;20027;-73
2023/02/27 08:26:13;;;;;;;3.40;3.10;;;;;;;-1.49;64.89;99111.16;5085746;28;20071;-74
2023/02/27 08:28:39;;;;;;;3.75;2.90;;;;;;;-1.34;65.73;99111.50;5070896;28;20104;-74
2023/02/27 08:31:05;;;;;;;3.88;2.85;;;;;;;-1.28;65.29;99103.00;5067135;28;20495;-74
2023/02/27 08:33:31;;;;;;;3.63;3.03;;;;;;;-1.35;64.58;99107.22;5079946;28;20024;-74
2023/02/27 08:35:57;;;;;;;3.75;2.60;;;;;;;-1.23;64.39;99108.66;5077089;28;20123;-74
2023/02/27 08:38:22;;;;;;;3.08;2.72;;;;;;;-1.11;64.01;99110.13;5073764;28;20114;-74
2023/02/27 08:40:52;;;;;;;4.97;2.78;;;;;;;-0.86;64.18;99118.16;5077770;28;20041;-74
2023/02/27 08:43:18;;;;;;;2.83;2.50;;;;;;;-1.00;62.87;99118.66;5090936;28;20102;-74
2023/02/27 08:45:44;;;;;;;2.70;2.50;;;;;;;-1.13;62.91;99110.28;5089137;28;20028;-74
2023/02/27 08:48:12;;;;;;;2.40;2.20;;;;;;;-0.79;63.60;99128.97;5080324;28;20500;-74
2023/02/27 08:50:38;;;;;;;3.60;2.58;;;;;;;-1.07;62.38;99122.88;5060914;28;20107;-74
2023/02/27 08:53:04;;;;;;;2.88;2.30;;;;;;;-0.87;61.27;99118.31;5090479;28;20439;-74
2023/02/27 08:55:29;;;;;;;4.25;2.75;;;;;;;-0.75;61.18;99125.06;5077114;28;20518;-73
2023/02/27 08:57:55;;;;;;;2.90;2.05;;;;;;;-0.70;60.70;99123.59;5080174;28;20023;-74
2023/02/27 09:00:21;;;;;;;2.30;1.98;;;;;;;-0.93;59.91;99129.47;5082208;28;20040;-74
2023/02/27 09:02:46;;;;;;;4.68;2.40;;;;;;;-0.82;59.83;99131.91;5080158;28;20052;-73
2023/02/27 09:05:12;;;;;;;3.80;2.20;;;;;;;-0.68;60.06;99136.69;5090407;28;20433;-74
2023/02/27 09:07:37;;;;;;;3.47;2.03;;;;;;;-0.46;60.11;99133.56;5079846;28;20074;-74
2023/02/27 09:10:03;;;;;;;3.72;2.40;;;;;;;-0.39;58.95;99134.63;5083436;28;20032;-74
2023/02/27 09:12:28;;;;;;;2.47;1.95;;;;;;;-0.28;59.95;99126.44;5063871;28;20471;-74
2023/02/27 09:14:54;;;;;;;3.20;2.10;;;;;;;-0.37;58.65;99127.38;5076418;28;20028;-74
2023/02/27 09:17:19;;;;;;;3.70;1.92;;;;;;;-0.48;57.79;99124.97;5080106;28;20035;-75
2023/02/27 09:19:44;;;;;;;4.38;2.50;;;;;;;-0.47;56.81;99134.59;5083520;28;20111;-74
2023/02/27 09:22:10;;;;;;;2.85;1.65;;;;;;;-0.30;58.40;99124.94;5079360;28;20077;-74
2023/02/27 09:24:35;;;;;;;2.33;1.92;;;;;;;-0.20;57.96;99125.69;5076601;28;20055;-73
2023/02/27 09:27:00;;;;;;;3.20;1.60;;;;;;;-0.48;57.89;99126.78;5060339;28;20179;-74
2023/02/27 09:29:26;;;;;;;2.95;1.70;;;;;;;-0.21;58.48;99135.44;5079209;28;20114;-74
2023/02/27 09:31:52;;;;;;;3.10;1.60;;;;;;;-0.38;55.87;99117.78;5045814;28;20126;-73
2023/02/27 09:34:17;;;;;;;1.85;1.70;;;;;;;-0.10;56.37;99119.34;5058248;28;20047;-74
2023/02/27 09:36:43;;;;;;;2.83;1.50;;;;;;;-0.11;56.18;99125.59;5080549;28;20033;-74
2023/02/27 09:39:08;;;;;;;2.78;1.77;;;;;;;-0.20;55.47;99120.41;5066987;28;20081;-73
2023/02/27 09:41:53;;;;;;;3.47;1.77;;;;;;;-0.26;56.47;99119.22;5062252;28;20080;-74
2023/02/27 09:44:30;;;;;;;4.38;1.95;;;;;;;-0.16;56.41;99127.88;5073020;28;20692;-74
2023/02/27 09:46:56;;;;;;;1.80;1.63;;;;;;;0.04;55.71;99120.59;5040119;28;20032;-73
2023/02/27 09:49:24;;;;;;;3.97;1.70;;;;;;;0.00;55.66;99133.28;5063203;28;20541;-74
2023/02/27 09:51:51;;;;;;;4.40;1.90;;;;;;;-0.05;55.83;99124.97;5059287;28;20084;-74
2023/02/27 09:54:16;;;;;;;2.72;1.90;;;;;;;0.15;55.11;99119.47;5059204;28;20031;-74
2023/02/27 09:56:55;;;;;;;2.53;1.70;;;;;;;0.27;54.84;99134.97;5072833;28;20032;-74
2023/02/27 09:59:30;;;;;;;3.42;1.67;;;;;;;0.10;53.52;99135.00;5032590;28;20256;-74
2023/02/27 10:02:11;;;;;;;2.20;1.73;;;;;;;0.34;54.58;99140.47;5077400;28;20029;-74
2023/02/27 10:04:44;;;;;;;2.85;1.63;;;;;;;0.52;54.98;99144.72;5078164;28;20033;-74
2023/02/27 10:07:22;;;;;;;2.63;1.75;;;;;;;0.37;54.20;99142.81;5071745;28;20123;-74
2023/02/27 10:09:56;;;;;;;2.40;1.73;;;;;;;0.39;54.62;99143.47;5089035;28;20047;-74
2023/02/27 10:12:31;;;;;;;5.57;2.40;;;;;;;0.38;54.55;99150.59;5078074;28;20158;-74
2023/02/27 10:15:01;;;;;;;2.40;1.70;;;;;;;0.42;53.66;99148.47;5080776;28;20392;-74
2023/02/27 10:17:43;;;;;;;2.05;1.85;;;;;;;0.44;53.93;99146.50;5079895;28;20119;-74
2023/02/27 10:20:18;;;;;;;3.35;2.00;;;;;;;0.53;53.37;99156.16;5070013;28;20028;-74
2023/02/27 10:22:45;;;;;;;4.77;2.00;;;;;;;0.58;54.48;99167.09;5066110;28;20060;-74
2023/02/27 10:25:15;;;;;;;3.28;1.83;;;;;;;0.49;54.23;99163.56;5043317;28;20056;-74
2023/02/27 10:27:42;;;;;;;3.90;1.88;;;;;;;0.54;53.12;99165.75;5054358;28;20036;-74
2023/02/27 10:30:23;;;;;;;5.57;3.42;;;;;;;0.56;54.01;99172.53;5049007;28;20024;-74
2023/02/27 10:32:52;;;;;;;3.80;2.38;;;;;;;0.62;53.28;99165.81;5077279;28;20620;-74
2023/02/27 10:35:27;;;;;;;4.32;2.38;;;;;;;0.61;53.06;99169.44;5062905;28;20024;-74
2023/02/27 10:38:38;;;;;;;3.08;2.40;;;;;;;0.55;53.96;99164.78;5044071;28;20036;-74
2023/02/27 10:41:05;;;;;;;4.53;2.70;;;;;;;0.73;54.75;99162.88;5034635;28;20055;-74
2023/02/27 10:43:31;;;;;;;5.63;2.03;;;;;;;0.86;53.39;99160.63;5042180;28;20025;-74
2023/02/27 10:46:05;;;;;;;7.47;3.72;;;;;;;1.02;52.96;99162.50;5070866;28;20031;-73
2023/02/27 10:48:31;;;;;;;3.43;3.13;;;;;;;0.74;52.69;99172.50;5043594;28;20403;-73
2023/02/27 10:51:24;;;;;;;5.22;3.20;;;;;;;0.78;52.30;99163.22;5048807;28;20070;-73
2023/02/27 10:53:52;;;;;;;4.50;2.72;;;;;;;0.87;52.06;99164.09;5066013;28;20173;-74
2023/02/27 10:56:25;;;;;;;3.80;3.33;;;;;;;1.10;52.49;99170.47;5066289;28;20549;-73
2023/02/27 10:59:27;;;;;;;3.45;2.10;;;;;;;0.76;51.80;99161.72;5076089;28;20448;-73
2023/02/27 11:01:56;;;;;;;4.07;3.15;;;;;;;0.85;50.26;99158.94;5069899;28;20052;-74
2023/02/27 11:04:24;;;;;;;3.05;1.80;;;;;;;0.94;50.89;99155.34;5082534;28;20471;-73
2023/02/27 11:06:54;;;;;;;2.58;2.10;;;;;;;1.04;52.34;99150.75;5062383;28;20032;-73
2023/02/27 11:09:22;;;;;;;3.33;2.88;;;;;;;1.18;53.08;99155.44;5045319;28;20029;-74
2023/02/27 11:11:48;;;;;;;3.78;1.90;;;;;;;1.15;51.73;99149.59;5048990;28;20506;-73
2023/02/27 11:14:26;;;;;;;3.55;1.70;;;;;;;1.10;51.51;99155.38;5066489;28;20055;-74
2023/02/27 11:16:54;;;;;;;4.18;2.00;;;;;;;1.03;50.39;99145.56;5078761;28;20133;-74
2023/02/27 11:19:24;;;;;;;2.72;1.83;;;;;;;1.18;50.13;99136.84;5057964;28;20025;-75
2023/02/27 11:22:15;;;;;;;4.20;1.80;;;;;;;1.21;51.51;99147.13;5065268;28;20035;-74
2023/02/27 11:24:40;;;;;;;2.28;1.90;;;;;;;1.17;52.81;99129.88;5078263;28;20040;-74
2023/02/27 11:27:27;;;;;;;2.55;1.90;;;;;;;1.18;52.91;99131.56;5065697;28;20032;-74
2023/02/27 11:30:01;;;;;;;1.90;1.70;;;;;;;1.11;51.88;99135.84;5074896;28;20036;-74
2023/02/27 11:32:42;;;;;;;6.43;2.30;;;;;;;1.26;52.17;99133.41;5075415;28;20035;-74
2023/02/27 11:35:29;;;;;;;2.72;1.95;;;;;;;1.46;50.88;99118.00;5063978;28;20043;-74
2023/02/27 11:37:56;;;;;;;2.65;2.00;;;;;;;1.44;52.26;99120.00;5061569;28;20028;-74
2023/02/27 11:40:28;;;;;;;3.35;1.70;;;;;;;1.40;50.43;99108.88;5092012;28;20023;-74
2023/02/27 11:42:56;;;;;;;7.47;2.50;;;;;;;1.68;52.97;99120.03;5078200;28;20032;-74
2023/02/27 11:45:31;;;;;;;1.98;1.70;;;;;;;1.72;51.42;99118.69;5078425;28;20020;-75
2023/02/27 11:48:00;;;;;;;3.10;2.10;;;;;;;2.17;50.09;99118.16;5054682;28;20119;-74
2023/02/27 11:50:41;;;;;;;2.05;1.63;;;;;;;2.09;48.58;99111.03;5085065;28;20022;-74